sensor_id;sensor_type;location;lat;lon;timestamp;temperature;humidity
8910;DHT22;4490;49.072;8.804;2022-09-01T00:01:27;17.10;93.80
8910;DHT22;4490;49.072;8.804;2022-09-01T00:03:54;17.00;93.90
8910;DHT22;4490;49.072;8.804;2022-09-01T00:06:23;17.00;94.10
8910;DHT22;4490;49.072;8.804;2022-09-01T00:08:53;17.00;94.30
8910;DHT22;4490;49.072;8.804;2022-09-01T00:11:21;17.00;94.60
8910;DHT22;4490;49.072;8.804;2022-09-01T00:13:47;17.00;94.80
8910;DHT22;4490;49.072;8.804;2022-09-01T00:16:14;16.90;95.00
8910;DHT22;4490;49.072;8.804;2022-09-01T00:18:42;16.90;95.30
8910;DHT22;4490;49.072;8.804;2022-09-01T00:21:09;16.90;95.40
8910;DHT22;4490;49.072;8.804;2022-09-01T00:23:36;16.90;95.50
8910;DHT22;4490;49.072;8.804;2022-09-01T00:26:02;16.90;95.50
8910;DHT22;4490;49.072;8.804;2022-09-01T00:28:28;16.90;95.60
8910;DHT22;4490;49.072;8.804;2022-09-01T00:30:54;16.80;95.90
8910;DHT22;4490;49.072;8.804;2022-09-01T00:33:19;16.80;96.30
8910;DHT22;4490;49.072;8.804;2022-09-01T00:35:45;16.80;96.40
8910;DHT22;4490;49.072;8.804;2022-09-01T00:38:11;16.90;96.60
8910;DHT22;4490;49.072;8.804;2022-09-01T00:40:37;16.80;96.50
8910;DHT22;4490;49.072;8.804;2022-09-01T00:43:15;16.80;96.50
8910;DHT22;4490;49.072;8.804;2022-09-01T00:45:42;16.90;96.70
8910;DHT22;4490;49.072;8.804;2022-09-01T00:48:08;16.90;96.70
8910;DHT22;4490;49.072;8.804;2022-09-01T00:50:34;16.90;96.80
8910;DHT22;4490;49.072;8.804;2022-09-01T00:53:01;16.90;96.90
8910;DHT22;4490;49.072;8.804;2022-09-01T00:55:30;16.90;96.90
8910;DHT22;4490;49.072;8.804;2022-09-01T00:57:59;16.90;97.00
8910;DHT22;4490;49.072;8.804;2022-09-01T01:00:29;17.00;97.10
8910;DHT22;4490;49.072;8.804;2022-09-01T01:02:56;17.00;97.10
8910;DHT22;4490;49.072;8.804;2022-09-01T01:05:30;17.00;97.00
8910;DHT22;4490;49.072;8.804;2022-09-01T01:07:58;17.00;96.70
8910;DHT22;4490;49.072;8.804;2022-09-01T01:10:30;17.00;96.80
8910;DHT22;4490;49.072;8.804;2022-09-01T01:12:57;16.90;96.60
8910;DHT22;4490;49.072;8.804;2022-09-01T01:15:27;16.90;96.90
8910;DHT22;4490;49.072;8.804;2022-09-01T01:17:53;16.80;97.20
8910;DHT22;4490;49.072;8.804;2022-09-01T01:20:21;16.80;97.50
8910;DHT22;4490;49.072;8.804;2022-09-01T01:23:33;16.80;97.70
8910;DHT22;4490;49.072;8.804;2022-09-01T01:26:03;16.80;97.80
8910;DHT22;4490;49.072;8.804;2022-09-01T01:28:32;16.70;97.90
8910;DHT22;4490;49.072;8.804;2022-09-01T01:31:08;16.70;98.00
8910;DHT22;4490;49.072;8.804;2022-09-01T01:33:46;16.70;98.10
8910;DHT22;4490;49.072;8.804;2022-09-01T01:36:26;16.70;97.50
8910;DHT22;4490;49.072;8.804;2022-09-01T01:38:59;16.80;97.00
8910;DHT22;4490;49.072;8.804;2022-09-01T01:41:29;16.70;96.80
8910;DHT22;4490;49.072;8.804;2022-09-01T01:43:58;16.60;96.80
8910;DHT22;4490;49.072;8.804;2022-09-01T01:46:24;16.50;96.90
8910;DHT22;4490;49.072;8.804;2022-09-01T01:48:51;16.50;97.10
8910;DHT22;4490;49.072;8.804;2022-09-01T01:51:19;16.40;97.40
8910;DHT22;4490;49.072;8.804;2022-09-01T01:53:46;16.30;97.80
8910;DHT22;4490;49.072;8.804;2022-09-01T01:56:12;16.30;98.20
8910;DHT22;4490;49.072;8.804;2022-09-01T01:58:38;16.20;98.10
8910;DHT22;4490;49.072;8.804;2022-09-01T02:01:05;16.20;98.10
8910;DHT22;4490;49.072;8.804;2022-09-01T02:03:32;16.20;98.30
8910;DHT22;4490;49.072;8.804;2022-09-01T02:06:03;16.20;98.30
8910;DHT22;4490;49.072;8.804;2022-09-01T02:08:32;16.10;98.40
8910;DHT22;4490;49.072;8.804;2022-09-01T02:11:01;16.00;98.90
8910;DHT22;4490;49.072;8.804;2022-09-01T02:13:27;16.00;99.20
8910;DHT22;4490;49.072;8.804;2022-09-01T02:15:57;16.00;99.80
8910;DHT22;4490;49.072;8.804;2022-09-01T02:18:30;16.00;99.90
8910;DHT22;4490;49.072;8.804;2022-09-01T02:20:58;16.00;99.90
8910;DHT22;4490;49.072;8.804;2022-09-01T02:23:25;16.00;99.90
8910;DHT22;4490;49.072;8.804;2022-09-01T02:25:53;16.00;99.90
8910;DHT22;4490;49.072;8.804;2022-09-01T02:28:21;16.10;99.90
8910;DHT22;4490;49.072;8.804;2022-09-01T02:30:49;16.10;99.90
8910;DHT22;4490;49.072;8.804;2022-09-01T02:33:21;16.00;99.90
8910;DHT22;4490;49.072;8.804;2022-09-01T02:35:55;16.10;99.90
8910;DHT22;4490;49.072;8.804;2022-09-01T02:38:22;16.10;99.90
8910;DHT22;4490;49.072;8.804;2022-09-01T02:40:51;16.10;99.90
8910;DHT22;4490;49.072;8.804;2022-09-01T02:43:18;16.10;99.90
8910;DHT22;4490;49.072;8.804;2022-09-01T02:45:55;16.10;99.90
8910;DHT22;4490;49.072;8.804;2022-09-01T02:48:30;16.10;99.90
8910;DHT22;4490;49.072;8.804;2022-09-01T02:50:58;16.10;99.90
8910;DHT22;4490;49.072;8.804;2022-09-01T02:53:27;16.00;99.90
8910;DHT22;4490;49.072;8.804;2022-09-01T02:55:52;16.00;99.90
8910;DHT22;4490;49.072;8.804;2022-09-01T02:58:18;16.10;99.90
8910;DHT22;4490;49.072;8.804;2022-09-01T03:00:45;16.00;99.90
8910;DHT22;4490;49.072;8.804;2022-09-01T03:03:11;16.00;99.90
8910;DHT22;4490;49.072;8.804;2022-09-01T03:05:44;16.00;99.90
8910;DHT22;4490;49.072;8.804;2022-09-01T03:08:11;16.00;99.90
8910;DHT22;4490;49.072;8.804;2022-09-01T03:10:42;16.00;99.90
8910;DHT22;4490;49.072;8.804;2022-09-01T03:13:15;15.90;99.90
8910;DHT22;4490;49.072;8.804;2022-09-01T03:15:42;16.00;99.90
8910;DHT22;4490;49.072;8.804;2022-09-01T03:18:09;15.90;99.90
8910;DHT22;4490;49.072;8.804;2022-09-01T03:20:37;15.90;99.90
8910;DHT22;4490;49.072;8.804;2022-09-01T03:23:06;15.90;99.90
8910;DHT22;4490;49.072;8.804;2022-09-01T03:25:36;15.90;99.90
8910;DHT22;4490;49.072;8.804;2022-09-01T03:28:04;15.90;99.90
8910;DHT22;4490;49.072;8.804;2022-09-01T03:30:32;15.90;99.90
8910;DHT22;4490;49.072;8.804;2022-09-01T03:32:59;15.90;99.90
8910;DHT22;4490;49.072;8.804;2022-09-01T03:35:27;15.90;99.90
8910;DHT22;4490;49.072;8.804;2022-09-01T03:37:54;15.80;99.90
8910;DHT22;4490;49.072;8.804;2022-09-01T03:40:27;15.80;99.90
8910;DHT22;4490;49.072;8.804;2022-09-01T03:42:57;15.80;99.90
8910;DHT22;4490;49.072;8.804;2022-09-01T03:45:23;15.80;99.90
8910;DHT22;4490;49.072;8.804;2022-09-01T03:47:53;15.80;99.90
8910;DHT22;4490;49.072;8.804;2022-09-01T03:50:22;15.70;99.90
8910;DHT22;4490;49.072;8.804;2022-09-01T03:52:50;15.70;99.90
8910;DHT22;4490;49.072;8.804;2022-09-01T03:55:21;15.70;99.90
8910;DHT22;4490;49.072;8.804;2022-09-01T03:57:55;15.70;99.90
8910;DHT22;4490;49.072;8.804;2022-09-01T04:00:22;15.70;99.90
8910;DHT22;4490;49.072;8.804;2022-09-01T04:02:50;15.70;99.90
8910;DHT22;4490;49.072;8.804;2022-09-01T04:05:20;15.70;99.90
8910;DHT22;4490;49.072;8.804;2022-09-01T04:07:47;15.80;99.90
8910;DHT22;4490;49.072;8.804;2022-09-01T04:10:16;15.70;99.90
8910;DHT22;4490;49.072;8.804;2022-09-01T04:12:43;15.70;99.90
8910;DHT22;4490;49.072;8.804;2022-09-01T04:15:09;15.70;99.90
8910;DHT22;4490;49.072;8.804;2022-09-01T04:17:35;15.70;99.90
8910;DHT22;4490;49.072;8.804;2022-09-01T04:20:20;15.70;99.90
8910;DHT22;4490;49.072;8.804;2022-09-01T04:22:46;15.70;99.90
8910;DHT22;4490;49.072;8.804;2022-09-01T04:25:13;15.70;99.90
8910;DHT22;4490;49.072;8.804;2022-09-01T04:27:40;15.70;99.90
8910;DHT22;4490;49.072;8.804;2022-09-01T04:30:09;15.70;99.90
8910;DHT22;4490;49.072;8.804;2022-09-01T04:32:38;15.70;99.90
8910;DHT22;4490;49.072;8.804;2022-09-01T04:35:05;15.70;99.90
8910;DHT22;4490;49.072;8.804;2022-09-01T04:37:32;15.70;99.90
8910;DHT22;4490;49.072;8.804;2022-09-01T04:40:02;15.60;99.90
8910;DHT22;4490;49.072;8.804;2022-09-01T04:42:29;15.70;99.90
8910;DHT22;4490;49.072;8.804;2022-09-01T04:44:57;15.60;99.90
8910;DHT22;4490;49.072;8.804;2022-09-01T04:47:25;15.60;99.90
8910;DHT22;4490;49.072;8.804;2022-09-01T04:49:57;15.60;99.90
8910;DHT22;4490;49.072;8.804;2022-09-01T04:52:28;15.60;99.90
8910;DHT22;4490;49.072;8.804;2022-09-01T04:54:53;15.60;99.90
8910;DHT22;4490;49.072;8.804;2022-09-01T04:57:20;15.60;99.90
8910;DHT22;4490;49.072;8.804;2022-09-01T04:59:46;15.70;99.90
8910;DHT22;4490;49.072;8.804;2022-09-01T05:02:12;15.70;99.90
8910;DHT22;4490;49.072;8.804;2022-09-01T05:04:37;15.70;99.90
8910;DHT22;4490;49.072;8.804;2022-09-01T05:07:04;15.70;99.90
8910;DHT22;4490;49.072;8.804;2022-09-01T05:09:35;15.70;99.90
8910;DHT22;4490;49.072;8.804;2022-09-01T05:12:02;15.70;99.90
8910;DHT22;4490;49.072;8.804;2022-09-01T05:14:40;15.80;99.90
8910;DHT22;4490;49.072;8.804;2022-09-01T05:17:08;15.80;99.90
8910;DHT22;4490;49.072;8.804;2022-09-01T05:19:39;15.80;99.90
8910;DHT22;4490;49.072;8.804;2022-09-01T05:22:06;15.80;99.90
8910;DHT22;4490;49.072;8.804;2022-09-01T05:24:33;15.80;99.90
8910;DHT22;4490;49.072;8.804;2022-09-01T05:26:59;15.80;99.90
8910;DHT22;4490;49.072;8.804;2022-09-01T05:29:25;15.80;99.90
8910;DHT22;4490;49.072;8.804;2022-09-01T05:31:52;15.80;99.90
8910;DHT22;4490;49.072;8.804;2022-09-01T05:34:19;15.80;99.90
8910;DHT22;4490;49.072;8.804;2022-09-01T05:36:52;15.80;99.90
8910;DHT22;4490;49.072;8.804;2022-09-01T05:39:19;15.90;99.90
8910;DHT22;4490;49.072;8.804;2022-09-01T05:41:45;15.90;99.90
8910;DHT22;4490;49.072;8.804;2022-09-01T05:44:12;15.90;99.90
8910;DHT22;4490;49.072;8.804;2022-09-01T05:46:40;16.00;99.90
8910;DHT22;4490;49.072;8.804;2022-09-01T05:49:08;16.00;99.90
8910;DHT22;4490;49.072;8.804;2022-09-01T05:51:44;16.00;99.90
8910;DHT22;4490;49.072;8.804;2022-09-01T05:54:15;16.00;99.90
8910;DHT22;4490;49.072;8.804;2022-09-01T05:56:41;16.00;99.90
8910;DHT22;4490;49.072;8.804;2022-09-01T05:59:07;16.00;99.90
8910;DHT22;4490;49.072;8.804;2022-09-01T06:01:36;16.00;99.90
8910;DHT22;4490;49.072;8.804;2022-09-01T06:04:06;16.10;99.90
8910;DHT22;4490;49.072;8.804;2022-09-01T06:06:42;16.10;99.90
8910;DHT22;4490;49.072;8.804;2022-09-01T06:09:12;16.20;99.90
8910;DHT22;4490;49.072;8.804;2022-09-01T06:11:39;16.20;99.90
8910;DHT22;4490;49.072;8.804;2022-09-01T06:14:06;16.20;99.90
8910;DHT22;4490;49.072;8.804;2022-09-01T06:16:36;16.30;99.90
8910;DHT22;4490;49.072;8.804;2022-09-01T06:19:02;16.30;99.90
8910;DHT22;4490;49.072;8.804;2022-09-01T06:21:29;16.40;99.90
8910;DHT22;4490;49.072;8.804;2022-09-01T06:23:56;16.40;99.90
8910;DHT22;4490;49.072;8.804;2022-09-01T06:26:28;16.50;99.90
8910;DHT22;4490;49.072;8.804;2022-09-01T06:28:55;16.60;99.90
8910;DHT22;4490;49.072;8.804;2022-09-01T06:31:23;16.60;99.90
8910;DHT22;4490;49.072;8.804;2022-09-01T06:33:51;16.80;99.90
8910;DHT22;4490;49.072;8.804;2022-09-01T06:36:21;17.00;99.90
8910;DHT22;4490;49.072;8.804;2022-09-01T06:38:48;17.40;99.90
8910;DHT22;4490;49.072;8.804;2022-09-01T06:41:18;17.80;99.90
8910;DHT22;4490;49.072;8.804;2022-09-01T06:43:47;18.20;99.90
8910;DHT22;4490;49.072;8.804;2022-09-01T06:46:15;18.60;99.90
8910;DHT22;4490;49.072;8.804;2022-09-01T06:48:42;18.90;99.90
8910;DHT22;4490;49.072;8.804;2022-09-01T06:51:12;19.10;99.90
8910;DHT22;4490;49.072;8.804;2022-09-01T06:53:39;19.30;99.90
8910;DHT22;4490;49.072;8.804;2022-09-01T06:56:06;19.40;98.80
8910;DHT22;4490;49.072;8.804;2022-09-01T06:58:34;19.60;98.50
8910;DHT22;4490;49.072;8.804;2022-09-01T07:01:08;19.60;97.60
8910;DHT22;4490;49.072;8.804;2022-09-01T07:03:45;19.60;96.70
8910;DHT22;4490;49.072;8.804;2022-09-01T07:06:12;19.60;96.80
8910;DHT22;4490;49.072;8.804;2022-09-01T07:08:40;19.50;96.90
8910;DHT22;4490;49.072;8.804;2022-09-01T07:11:17;19.50;97.20
8910;DHT22;4490;49.072;8.804;2022-09-01T07:13:48;19.40;96.80
8910;DHT22;4490;49.072;8.804;2022-09-01T07:16:17;19.30;96.80
8910;DHT22;4490;49.072;8.804;2022-09-01T07:18:48;19.30;96.80
8910;DHT22;4490;49.072;8.804;2022-09-01T07:21:14;19.30;96.80
8910;DHT22;4490;49.072;8.804;2022-09-01T07:23:39;19.30;96.60
8910;DHT22;4490;49.072;8.804;2022-09-01T07:26:08;19.30;96.30
8910;DHT22;4490;49.072;8.804;2022-09-01T07:28:35;19.30;95.80
8910;DHT22;4490;49.072;8.804;2022-09-01T07:31:00;19.30;95.80
8910;DHT22;4490;49.072;8.804;2022-09-01T07:33:30;19.30;95.90
8910;DHT22;4490;49.072;8.804;2022-09-01T07:35:56;19.40;95.90
8910;DHT22;4490;49.072;8.804;2022-09-01T07:38:23;19.50;95.90
8910;DHT22;4490;49.072;8.804;2022-09-01T07:40:50;19.50;95.40
8910;DHT22;4490;49.072;8.804;2022-09-01T07:43:21;19.60;95.30
8910;DHT22;4490;49.072;8.804;2022-09-01T07:45:50;19.70;95.20
8910;DHT22;4490;49.072;8.804;2022-09-01T07:48:18;19.80;95.00
8910;DHT22;4490;49.072;8.804;2022-09-01T07:50:48;19.80;94.70
8910;DHT22;4490;49.072;8.804;2022-09-01T07:53:22;19.90;94.40
8910;DHT22;4490;49.072;8.804;2022-09-01T07:55:50;19.90;94.20
8910;DHT22;4490;49.072;8.804;2022-09-01T07:58:18;20.00;93.90
8910;DHT22;4490;49.072;8.804;2022-09-01T08:00:45;20.00;93.70
8910;DHT22;4490;49.072;8.804;2022-09-01T08:03:17;20.10;93.20
8910;DHT22;4490;49.072;8.804;2022-09-01T08:05:43;20.30;92.90
8910;DHT22;4490;49.072;8.804;2022-09-01T08:08:08;20.40;92.90
8910;DHT22;4490;49.072;8.804;2022-09-01T08:10:38;20.50;92.60
8910;DHT22;4490;49.072;8.804;2022-09-01T08:13:05;20.70;92.20
8910;DHT22;4490;49.072;8.804;2022-09-01T08:15:30;20.80;91.80
8910;DHT22;4490;49.072;8.804;2022-09-01T08:17:56;20.90;91.70
8910;DHT22;4490;49.072;8.804;2022-09-01T08:20:23;21.00;90.90
8910;DHT22;4490;49.072;8.804;2022-09-01T08:22:49;21.10;90.80
8910;DHT22;4490;49.072;8.804;2022-09-01T08:25:14;21.20;90.80
8910;DHT22;4490;49.072;8.804;2022-09-01T08:27:40;21.20;90.50
8910;DHT22;4490;49.072;8.804;2022-09-01T08:30:09;21.30;90.30
8910;DHT22;4490;49.072;8.804;2022-09-01T08:32:36;21.40;90.30
8910;DHT22;4490;49.072;8.804;2022-09-01T08:35:02;21.50;90.50
8910;DHT22;4490;49.072;8.804;2022-09-01T08:37:29;21.50;89.80
8910;DHT22;4490;49.072;8.804;2022-09-01T08:39:55;21.60;89.20
8910;DHT22;4490;49.072;8.804;2022-09-01T08:42:43;21.50;88.30
8910;DHT22;4490;49.072;8.804;2022-09-01T08:45:57;21.50;87.90
8910;DHT22;4490;49.072;8.804;2022-09-01T08:50:39;21.50;87.60
8910;DHT22;4490;49.072;8.804;2022-09-01T08:53:14;21.60;87.60
8910;DHT22;4490;49.072;8.804;2022-09-01T08:55:46;21.80;87.70
8910;DHT22;4490;49.072;8.804;2022-09-01T08:58:15;22.10;86.60
8910;DHT22;4490;49.072;8.804;2022-09-01T09:00:45;22.30;85.10
8910;DHT22;4490;49.072;8.804;2022-09-01T09:14:17;23.40;78.00
8910;DHT22;4490;49.072;8.804;2022-09-01T09:16:48;23.40;77.90
8910;DHT22;4490;49.072;8.804;2022-09-01T09:19:25;23.50;78.20
8910;DHT22;4490;49.072;8.804;2022-09-01T09:21:53;23.90;77.60
8910;DHT22;4490;49.072;8.804;2022-09-01T09:24:28;24.10;75.90
8910;DHT22;4490;49.072;8.804;2022-09-01T09:27:19;24.20;74.70
8910;DHT22;4490;49.072;8.804;2022-09-01T09:29:50;24.40;73.40
8910;DHT22;4490;49.072;8.804;2022-09-01T09:32:19;24.40;72.60
8910;DHT22;4490;49.072;8.804;2022-09-01T09:34:45;24.30;71.60
8910;DHT22;4490;49.072;8.804;2022-09-01T09:37:24;24.20;72.00
8910;DHT22;4490;49.072;8.804;2022-09-01T09:42:38;24.10;71.40
8910;DHT22;4490;49.072;8.804;2022-09-01T09:47:49;24.20;73.60
8910;DHT22;4490;49.072;8.804;2022-09-01T09:50:41;24.40;72.50
8910;DHT22;4490;49.072;8.804;2022-09-01T09:53:37;24.90;70.00
8910;DHT22;4490;49.072;8.804;2022-09-01T09:58:44;25.00;69.70
8910;DHT22;4490;49.072;8.804;2022-09-01T10:03:54;25.20;69.90
8910;DHT22;4490;49.072;8.804;2022-09-01T10:11:51;25.50;66.30
8910;DHT22;4490;49.072;8.804;2022-09-01T10:14:42;25.60;67.50
8910;DHT22;4490;49.072;8.804;2022-09-01T10:17:14;25.90;67.20
8910;DHT22;4490;49.072;8.804;2022-09-01T10:19:53;26.30;66.40
8910;DHT22;4490;49.072;8.804;2022-09-01T10:22:20;26.60;65.60
8910;DHT22;4490;49.072;8.804;2022-09-01T10:24:47;26.60;65.30
8910;DHT22;4490;49.072;8.804;2022-09-01T10:27:25;26.50;64.40
8910;DHT22;4490;49.072;8.804;2022-09-01T10:29:53;26.40;63.00
8910;DHT22;4490;49.072;8.804;2022-09-01T10:32:25;26.40;64.40
8910;DHT22;4490;49.072;8.804;2022-09-01T10:34:52;26.40;64.50
8910;DHT22;4490;49.072;8.804;2022-09-01T10:37:18;26.50;63.20
8910;DHT22;4490;49.072;8.804;2022-09-01T10:40:11;26.70;63.30
8910;DHT22;4490;49.072;8.804;2022-09-01T10:42:39;26.80;61.60
8910;DHT22;4490;49.072;8.804;2022-09-01T10:45:19;26.60;62.30
8910;DHT22;4490;49.072;8.804;2022-09-01T10:47:52;26.60;61.10
8910;DHT22;4490;49.072;8.804;2022-09-01T10:50:31;26.60;62.30
8910;DHT22;4490;49.072;8.804;2022-09-01T10:53:04;26.70;60.70
8910;DHT22;4490;49.072;8.804;2022-09-01T10:55:40;26.80;62.90
8910;DHT22;4490;49.072;8.804;2022-09-01T11:01:15;27.00;60.50
8910;DHT22;4490;49.072;8.804;2022-09-01T11:03:53;27.00;61.60
8910;DHT22;4490;49.072;8.804;2022-09-01T11:09:18;27.20;58.40
8910;DHT22;4490;49.072;8.804;2022-09-01T11:14:32;27.40;59.70
8910;DHT22;4490;49.072;8.804;2022-09-01T11:22:33;27.30;59.50
8910;DHT22;4490;49.072;8.804;2022-09-01T11:30:32;27.50;59.90
8910;DHT22;4490;49.072;8.804;2022-09-01T11:35:32;27.70;59.20
8910;DHT22;4490;49.072;8.804;2022-09-01T11:38:03;27.70;59.10
8910;DHT22;4490;49.072;8.804;2022-09-01T11:40:33;27.80;58.60
8910;DHT22;4490;49.072;8.804;2022-09-01T11:43:03;27.90;57.50
8910;DHT22;4490;49.072;8.804;2022-09-01T11:45:32;27.90;57.60
8910;DHT22;4490;49.072;8.804;2022-09-01T11:48:06;27.90;57.20
8910;DHT22;4490;49.072;8.804;2022-09-01T11:50:39;28.10;57.00
8910;DHT22;4490;49.072;8.804;2022-09-01T11:53:14;28.30;56.80
8910;DHT22;4490;49.072;8.804;2022-09-01T11:55:47;28.40;56.50
8910;DHT22;4490;49.072;8.804;2022-09-01T11:58:31;28.30;56.00
8910;DHT22;4490;49.072;8.804;2022-09-01T12:01:19;28.40;55.90
8910;DHT22;4490;49.072;8.804;2022-09-01T12:03:48;28.50;55.30
8910;DHT22;4490;49.072;8.804;2022-09-01T12:06:24;28.60;55.30
8910;DHT22;4490;49.072;8.804;2022-09-01T12:08:56;28.80;54.50
8910;DHT22;4490;49.072;8.804;2022-09-01T12:11:28;28.90;55.20
8910;DHT22;4490;49.072;8.804;2022-09-01T12:13:59;29.00;54.30
8910;DHT22;4490;49.072;8.804;2022-09-01T12:16:27;29.20;54.00
8910;DHT22;4490;49.072;8.804;2022-09-01T12:18:54;29.50;53.20
8910;DHT22;4490;49.072;8.804;2022-09-01T12:21:29;29.70;53.20
8910;DHT22;4490;49.072;8.804;2022-09-01T12:24:19;29.90;51.40
8910;DHT22;4490;49.072;8.804;2022-09-01T12:26:47;30.20;49.60
8910;DHT22;4490;49.072;8.804;2022-09-01T12:29:13;30.40;51.20
8910;DHT22;4490;49.072;8.804;2022-09-01T12:31:42;30.80;51.00
8910;DHT22;4490;49.072;8.804;2022-09-01T12:37:09;30.80;50.40
8910;DHT22;4490;49.072;8.804;2022-09-01T12:39:41;30.50;49.90
8910;DHT22;4490;49.072;8.804;2022-09-01T12:50:05;29.90;49.90
8910;DHT22;4490;49.072;8.804;2022-09-01T12:52:33;29.90;50.70
8910;DHT22;4490;49.072;8.804;2022-09-01T12:57:32;30.10;50.10
8910;DHT22;4490;49.072;8.804;2022-09-01T13:02:45;30.20;48.90
8910;DHT22;4490;49.072;8.804;2022-09-01T13:08:05;29.70;48.90
8910;DHT22;4490;49.072;8.804;2022-09-01T13:10:37;29.30;49.50
8910;DHT22;4490;49.072;8.804;2022-09-01T13:13:04;28.90;49.90
8910;DHT22;4490;49.072;8.804;2022-09-01T13:15:31;28.50;50.50
8910;DHT22;4490;49.072;8.804;2022-09-01T13:17:57;28.10;50.80
8910;DHT22;4490;49.072;8.804;2022-09-01T13:20:23;27.70;51.40
8910;DHT22;4490;49.072;8.804;2022-09-01T13:22:48;27.50;52.20
8910;DHT22;4490;49.072;8.804;2022-09-01T13:25:17;27.30;52.70
8910;DHT22;4490;49.072;8.804;2022-09-01T13:27:44;27.30;53.70
8910;DHT22;4490;49.072;8.804;2022-09-01T13:30:15;27.50;54.20
8910;DHT22;4490;49.072;8.804;2022-09-01T13:32:43;27.70;53.70
8910;DHT22;4490;49.072;8.804;2022-09-01T13:35:09;28.00;53.60
8910;DHT22;4490;49.072;8.804;2022-09-01T13:37:35;28.40;52.90
8910;DHT22;4490;49.072;8.804;2022-09-01T13:40:02;28.80;52.50
8910;DHT22;4490;49.072;8.804;2022-09-01T13:42:28;29.10;52.00
8910;DHT22;4490;49.072;8.804;2022-09-01T13:44:54;29.50;51.60
8910;DHT22;4490;49.072;8.804;2022-09-01T13:47:19;29.60;50.90
8910;DHT22;4490;49.072;8.804;2022-09-01T13:49:45;29.80;50.40
8910;DHT22;4490;49.072;8.804;2022-09-01T13:52:11;29.90;49.60
8910;DHT22;4490;49.072;8.804;2022-09-01T13:54:37;30.10;49.80
8910;DHT22;4490;49.072;8.804;2022-09-01T13:57:03;30.40;48.60
8910;DHT22;4490;49.072;8.804;2022-09-01T13:59:28;30.60;48.60
8910;DHT22;4490;49.072;8.804;2022-09-01T14:01:56;30.80;48.20
8910;DHT22;4490;49.072;8.804;2022-09-01T14:04:22;30.90;48.40
8910;DHT22;4490;49.072;8.804;2022-09-01T14:06:47;30.90;47.50
8910;DHT22;4490;49.072;8.804;2022-09-01T14:09:14;30.90;46.90
8910;DHT22;4490;49.072;8.804;2022-09-01T14:11:40;31.00;46.70
8910;DHT22;4490;49.072;8.804;2022-09-01T14:14:06;31.00;46.30
8910;DHT22;4490;49.072;8.804;2022-09-01T14:16:32;30.70;46.30
8910;DHT22;4490;49.072;8.804;2022-09-01T14:18:59;30.50;46.60
8910;DHT22;4490;49.072;8.804;2022-09-01T14:21:25;30.30;47.00
8910;DHT22;4490;49.072;8.804;2022-09-01T14:23:52;30.30;47.40
8910;DHT22;4490;49.072;8.804;2022-09-01T14:26:18;30.20;48.10
8910;DHT22;4490;49.072;8.804;2022-09-01T14:28:44;30.10;47.30
8910;DHT22;4490;49.072;8.804;2022-09-01T14:31:16;30.10;47.50
8910;DHT22;4490;49.072;8.804;2022-09-01T14:33:43;29.90;47.20
8910;DHT22;4490;49.072;8.804;2022-09-01T14:36:16;29.60;47.20
8910;DHT22;4490;49.072;8.804;2022-09-01T14:38:42;29.60;47.80
8910;DHT22;4490;49.072;8.804;2022-09-01T14:41:08;29.40;48.50
8910;DHT22;4490;49.072;8.804;2022-09-01T14:43:33;29.40;48.50
8910;DHT22;4490;49.072;8.804;2022-09-01T14:46:06;29.50;49.10
8910;DHT22;4490;49.072;8.804;2022-09-01T14:48:34;29.60;49.90
8910;DHT22;4490;49.072;8.804;2022-09-01T14:51:00;29.60;49.40
8910;DHT22;4490;49.072;8.804;2022-09-01T14:53:28;29.50;48.90
8910;DHT22;4490;49.072;8.804;2022-09-01T14:55:55;29.40;48.90
8910;DHT22;4490;49.072;8.804;2022-09-01T14:58:22;29.30;49.00
8910;DHT22;4490;49.072;8.804;2022-09-01T15:00:48;29.10;49.30
8910;DHT22;4490;49.072;8.804;2022-09-01T15:03:14;29.00;49.30
8910;DHT22;4490;49.072;8.804;2022-09-01T15:05:40;28.80;49.20
8910;DHT22;4490;49.072;8.804;2022-09-01T15:08:06;28.80;49.70
8910;DHT22;4490;49.072;8.804;2022-09-01T15:10:32;28.60;49.50
8910;DHT22;4490;49.072;8.804;2022-09-01T15:12:59;28.50;49.80
8910;DHT22;4490;49.072;8.804;2022-09-01T15:15:26;28.40;50.10
8910;DHT22;4490;49.072;8.804;2022-09-01T15:17:52;28.30;49.90
8910;DHT22;4490;49.072;8.804;2022-09-01T15:20:18;28.20;50.20
8910;DHT22;4490;49.072;8.804;2022-09-01T15:23:03;28.10;50.20
8910;DHT22;4490;49.072;8.804;2022-09-01T15:25:29;28.00;50.50
8910;DHT22;4490;49.072;8.804;2022-09-01T15:27:54;27.90;50.40
8910;DHT22;4490;49.072;8.804;2022-09-01T15:30:20;27.90;50.70
8910;DHT22;4490;49.072;8.804;2022-09-01T15:32:48;27.80;51.00
8910;DHT22;4490;49.072;8.804;2022-09-01T15:35:14;27.70;51.30
8910;DHT22;4490;49.072;8.804;2022-09-01T15:37:41;27.60;51.20
8910;DHT22;4490;49.072;8.804;2022-09-01T15:40:08;27.50;51.20
8910;DHT22;4490;49.072;8.804;2022-09-01T15:42:35;27.40;51.50
8910;DHT22;4490;49.072;8.804;2022-09-01T15:45:07;27.40;51.00
8910;DHT22;4490;49.072;8.804;2022-09-01T15:47:34;27.30;51.30
8910;DHT22;4490;49.072;8.804;2022-09-01T15:50:03;27.10;51.60
8910;DHT22;4490;49.072;8.804;2022-09-01T15:52:28;27.00;51.30
8910;DHT22;4490;49.072;8.804;2022-09-01T15:54:54;26.90;51.40
8910;DHT22;4490;49.072;8.804;2022-09-01T15:57:20;26.80;52.00
8910;DHT22;4490;49.072;8.804;2022-09-01T15:59:45;26.80;52.00
8910;DHT22;4490;49.072;8.804;2022-09-01T16:02:11;26.80;51.50
8910;DHT22;4490;49.072;8.804;2022-09-01T16:04:38;26.70;52.00
8910;DHT22;4490;49.072;8.804;2022-09-01T16:07:04;26.70;51.80
8910;DHT22;4490;49.072;8.804;2022-09-01T16:09:30;26.70;52.00
8910;DHT22;4490;49.072;8.804;2022-09-01T16:11:56;26.70;51.70
8910;DHT22;4490;49.072;8.804;2022-09-01T16:14:22;26.70;51.80
8910;DHT22;4490;49.072;8.804;2022-09-01T16:17:14;26.60;51.60
8910;DHT22;4490;49.072;8.804;2022-09-01T16:22:32;26.70;51.50
8910;DHT22;4490;49.072;8.804;2022-09-01T16:25:00;26.70;51.50
8910;DHT22;4490;49.072;8.804;2022-09-01T16:27:33;26.70;51.40
8910;DHT22;4490;49.072;8.804;2022-09-01T16:30:14;26.60;51.70
8910;DHT22;4490;49.072;8.804;2022-09-01T16:32:45;26.60;51.60
8910;DHT22;4490;49.072;8.804;2022-09-01T16:35:12;26.40;51.90
8910;DHT22;4490;49.072;8.804;2022-09-01T16:40:31;26.20;52.40
8910;DHT22;4490;49.072;8.804;2022-09-01T16:43:34;26.10;52.80
8910;DHT22;4490;49.072;8.804;2022-09-01T16:46:13;26.00;53.10
8910;DHT22;4490;49.072;8.804;2022-09-01T16:49:11;25.80;53.20
8910;DHT22;4490;49.072;8.804;2022-09-01T16:51:58;25.60;53.70
8910;DHT22;4490;49.072;8.804;2022-09-01T17:00:41;25.20;54.80
8910;DHT22;4490;49.072;8.804;2022-09-01T17:03:14;25.10;55.10
8910;DHT22;4490;49.072;8.804;2022-09-01T17:05:55;24.90;55.50
8910;DHT22;4490;49.072;8.804;2022-09-01T17:08:32;24.90;55.80
8910;DHT22;4490;49.072;8.804;2022-09-01T17:11:28;24.80;55.90
8910;DHT22;4490;49.072;8.804;2022-09-01T17:13:59;24.70;56.10
8910;DHT22;4490;49.072;8.804;2022-09-01T17:16:32;24.60;56.10
8910;DHT22;4490;49.072;8.804;2022-09-01T17:19:05;24.60;56.60
8910;DHT22;4490;49.072;8.804;2022-09-01T17:21:44;24.60;56.70
8910;DHT22;4490;49.072;8.804;2022-09-01T17:24:44;24.50;56.70
8910;DHT22;4490;49.072;8.804;2022-09-01T17:29:43;24.40;56.80
8910;DHT22;4490;49.072;8.804;2022-09-01T17:35:05;24.30;56.80
8910;DHT22;4490;49.072;8.804;2022-09-01T17:37:58;24.20;56.70
8910;DHT22;4490;49.072;8.804;2022-09-01T17:43:13;24.10;57.10
8910;DHT22;4490;49.072;8.804;2022-09-01T17:48:30;23.90;57.30
8910;DHT22;4490;49.072;8.804;2022-09-01T17:51:08;23.90;57.60
8910;DHT22;4490;49.072;8.804;2022-09-01T17:53:59;23.80;57.60